createdAt,value
2022-12-19T00:01:53.132Z,3.86
2022-12-19T00:04:22.222Z,3.54
2022-12-19T00:06:49.865Z,3.68
2022-12-19T00:09:17.515Z,3.68
2022-12-19T00:11:45.139Z,3.45
2022-12-19T00:14:12.968Z,3.65
2022-12-19T00:16:40.725Z,3.39
2022-12-19T00:19:08.516Z,3.66
2022-12-19T00:21:38.616Z,3.55
2022-12-19T00:24:21.509Z,3.75
2022-12-19T00:26:49.763Z,3.70
2022-12-19T00:29:17.484Z,3.38
2022-12-19T00:31:45.463Z,3.49
2022-12-19T00:34:13.292Z,3.66
2022-12-19T00:36:42.339Z,3.74
2022-12-19T00:39:11.616Z,3.96
2022-12-19T00:41:42.047Z,3.90
2022-12-19T00:44:19.154Z,3.92
2022-12-19T00:46:51.511Z,3.95
2022-12-19T00:49:20.609Z,4.00
2022-12-19T00:51:49.665Z,3.63
2022-12-19T00:54:17.299Z,3.90
2022-12-19T00:56:45.438Z,4.32
2022-12-19T00:59:13.080Z,4.05
2022-12-19T01:01:42.266Z,4.01
2022-12-19T01:04:30.366Z,3.84
2022-12-19T01:07:01.973Z,4.11
2022-12-19T01:09:29.971Z,3.85
2022-12-19T01:12:15.458Z,4.33
2022-12-19T01:14:43.099Z,4.51
2022-12-19T01:17:10.712Z,4.20
2022-12-19T01:19:43.679Z,3.78
2022-12-19T01:22:13.678Z,4.10
2022-12-19T01:24:41.822Z,4.26
2022-12-19T01:27:09.854Z,4.01
2022-12-19T01:29:47.260Z,3.94
2022-12-19T01:32:20.351Z,4.31
2022-12-19T01:34:48.021Z,4.20
2022-12-19T01:37:18.505Z,4.53
2022-12-19T01:39:46.294Z,4.02
2022-12-19T01:42:16.157Z,4.18
2022-12-19T01:45:20.165Z,3.90
2022-12-19T01:47:53.708Z,3.93
2022-12-19T01:50:25.366Z,4.03
2022-12-19T01:52:55.162Z,3.62
2022-12-19T01:55:22.840Z,4.28
2022-12-19T01:57:50.525Z,4.31
2022-12-19T02:00:18.254Z,4.42
2022-12-19T02:02:47.999Z,4.23
2022-12-19T02:05:15.698Z,3.99
2022-12-19T02:07:44.447Z,4.23
2022-12-19T02:10:13.486Z,4.38
2022-12-19T02:12:43.020Z,4.34
2022-12-19T02:15:12.094Z,4.35
2022-12-19T02:17:43.972Z,4.78
2022-12-19T02:20:52.785Z,4.69
2022-12-19T02:23:47.565Z,4.44
2022-12-19T02:26:44.541Z,4.67
2022-12-19T02:29:28.851Z,4.98
2022-12-19T02:32:01.577Z,4.74
2022-12-19T02:34:32.918Z,4.44
2022-12-19T02:37:03.186Z,4.20
2022-12-19T02:39:35.690Z,4.46
2022-12-19T02:42:05.433Z,4.71
2022-12-19T02:44:35.260Z,4.65
2022-12-19T02:47:05.727Z,4.65
2022-12-19T02:49:34.474Z,4.76
2022-12-19T02:52:10.967Z,4.62
2022-12-19T02:54:42.228Z,4.77
2022-12-19T02:57:17.903Z,4.87
2022-12-19T02:59:53.600Z,4.67
2022-12-19T03:02:28.607Z,4.64
2022-12-19T03:05:00.527Z,4.50
2022-12-19T03:07:31.583Z,4.37
2022-12-19T03:10:05.266Z,4.44
2022-12-19T03:12:37.700Z,4.51
2022-12-19T03:15:06.141Z,4.76
2022-12-19T03:17:37.768Z,4.95
2022-12-19T03:20:09.901Z,4.79
2022-12-19T03:22:37.601Z,4.95
2022-12-19T03:25:05.876Z,4.85
2022-12-19T03:27:35.672Z,5.09
2022-12-19T03:30:06.730Z,4.96
2022-12-19T03:32:34.767Z,5.25
2022-12-19T03:35:05.880Z,5.18
2022-12-19T03:37:35.959Z,5.02
2022-12-19T03:40:06.497Z,5.14
2022-12-19T03:42:53.144Z,5.57
2022-12-19T03:45:27.133Z,5.40
2022-12-19T03:47:58.460Z,5.75
2022-12-19T03:50:32.642Z,5.61
2022-12-19T03:53:06.135Z,5.51
2022-12-19T03:55:39.642Z,5.64
2022-12-19T03:58:09.165Z,5.62
2022-12-19T04:00:39.235Z,5.50
2022-12-19T04:03:08.285Z,5.47
2022-12-19T04:05:39.951Z,5.82
2022-12-19T04:08:09.347Z,5.36
2022-12-19T04:10:41.965Z,5.60
2022-12-19T04:13:13.147Z,5.74
2022-12-19T04:15:45.431Z,5.55
2022-12-19T04:18:13.717Z,5.73
2022-12-19T04:20:45.203Z,5.89
2022-12-19T04:23:16.922Z,5.80
2022-12-19T04:25:47.514Z,6.19
2022-12-19T04:28:18.611Z,6.14
2022-12-19T04:30:47.666Z,6.18
2022-12-19T04:33:15.373Z,5.66
2022-12-19T04:35:44.432Z,6.22
2022-12-19T04:38:12.082Z,6.01
2022-12-19T04:40:41.691Z,6.01
2022-12-19T04:43:09.736Z,6.11
2022-12-19T04:45:37.808Z,6.04
2022-12-19T04:48:05.842Z,6.26
2022-12-19T04:50:36.404Z,6.01
2022-12-19T04:53:05.915Z,6.43
2022-12-19T04:55:33.712Z,6.41
2022-12-19T04:58:02.588Z,6.05
2022-12-19T05:00:30.212Z,6.18
2022-12-19T05:02:58.167Z,5.90
2022-12-19T05:05:26.081Z,5.69
2022-12-19T05:07:54.027Z,6.50
2022-12-19T05:10:23.090Z,5.68
2022-12-19T05:12:50.772Z,5.96
2022-12-19T05:15:18.633Z,6.29
2022-12-19T05:17:46.364Z,6.44
2022-12-19T05:20:14.473Z,6.36
2022-12-19T05:22:42.114Z,6.42
2022-12-19T05:25:10.449Z,6.72
2022-12-19T05:27:39.473Z,6.09
2022-12-19T05:30:08.295Z,6.73
2022-12-19T05:32:35.941Z,6.62
2022-12-19T05:35:03.630Z,6.82
2022-12-19T05:37:31.348Z,6.98
2022-12-19T05:39:59.070Z,6.41
2022-12-19T05:42:27.223Z,6.65
2022-12-19T05:44:56.228Z,6.97
2022-12-19T05:47:23.929Z,6.87
2022-12-19T05:49:51.593Z,6.88
2022-12-19T05:52:19.284Z,6.98
2022-12-19T05:54:47.019Z,6.73
2022-12-19T05:57:14.699Z,6.83
2022-12-19T05:59:42.413Z,6.92
2022-12-19T06:02:11.574Z,6.70
2022-12-19T06:04:39.398Z,6.60
2022-12-19T06:07:07.164Z,6.92
2022-12-19T06:09:34.899Z,6.97
2022-12-19T06:12:02.577Z,6.72
2022-12-19T06:14:30.312Z,7.23
2022-12-19T06:16:58.479Z,7.08
2022-12-19T06:19:27.936Z,7.25
2022-12-19T06:21:55.597Z,6.99
2022-12-19T06:24:25.352Z,7.34
2022-12-19T06:26:53.028Z,6.87
2022-12-19T06:29:21.040Z,7.09
2022-12-19T06:31:48.825Z,6.92
2022-12-19T06:34:39.457Z,7.23
2022-12-19T06:37:08.288Z,7.11
2022-12-19T06:39:36.491Z,6.70
2022-12-19T06:42:21.986Z,7.00
2022-12-19T06:44:49.767Z,7.18
2022-12-19T06:47:17.516Z,7.53
2022-12-19T06:49:49.595Z,7.40
2022-12-19T06:52:18.843Z,7.25
2022-12-19T06:54:46.525Z,6.93
2022-12-19T06:57:14.169Z,7.20
2022-12-19T06:59:42.279Z,7.60
2022-12-19T07:02:21.236Z,7.62
2022-12-19T07:04:51.441Z,7.47
2022-12-19T07:07:20.577Z,7.73
2022-12-19T07:09:49.125Z,7.47
2022-12-19T07:12:16.770Z,7.37
2022-12-19T07:14:47.728Z,7.13
2022-12-19T07:17:18.589Z,7.58
2022-12-19T07:19:46.335Z,7.40
2022-12-19T07:22:13.986Z,6.83
2022-12-19T07:24:43.039Z,7.01
2022-12-19T07:27:10.769Z,7.09
2022-12-19T07:29:38.452Z,7.20
2022-12-19T07:32:06.365Z,7.02
2022-12-19T07:34:34.133Z,6.73
2022-12-19T07:37:01.791Z,7.56
2022-12-19T07:39:29.471Z,7.52
2022-12-19T07:41:58.576Z,7.44
2022-12-19T07:44:26.318Z,7.54
2022-12-19T07:46:54.012Z,8.14
2022-12-19T07:49:22.958Z,7.16
2022-12-19T07:51:50.892Z,7.72
2022-12-19T07:54:18.606Z,8.21
2022-12-19T07:56:46.338Z,7.29
2022-12-19T07:59:15.483Z,7.76
2022-12-19T08:01:43.286Z,7.24
2022-12-19T08:04:11.081Z,7.68
2022-12-19T08:06:41.446Z,7.62
2022-12-19T08:09:09.680Z,7.68
2022-12-19T08:11:37.373Z,7.53
2022-12-19T08:14:05.037Z,7.98
2022-12-19T08:16:49.420Z,7.66
2022-12-19T08:19:27.164Z,7.83
2022-12-19T08:21:55.278Z,7.64
2022-12-19T08:24:22.911Z,8.23
2022-12-19T08:26:50.565Z,8.27
2022-12-19T08:29:18.280Z,7.79
2022-12-19T08:31:47.331Z,8.36
2022-12-19T08:34:15.013Z,8.01
2022-12-19T08:36:42.728Z,7.95
2022-12-19T08:39:11.178Z,7.63
2022-12-19T08:41:38.896Z,8.34
2022-12-19T08:44:07.142Z,8.23
2022-12-19T08:46:34.931Z,8.13
2022-12-19T08:49:03.966Z,8.37
2022-12-19T08:51:31.688Z,8.23
2022-12-19T08:53:59.945Z,8.34
2022-12-19T08:56:28.923Z,8.33
2022-12-19T08:58:56.987Z,8.21
2022-12-19T09:01:25.907Z,8.65
2022-12-19T09:05:19.996Z,8.19
2022-12-19T09:06:42.661Z,8.50
2022-12-19T09:09:10.423Z,7.86
2022-12-19T09:11:47.525Z,8.63
2022-12-19T09:14:21.171Z,8.40
2022-12-19T09:16:49.500Z,8.59
2022-12-19T09:19:18.083Z,8.08
2022-12-19T09:21:47.163Z,8.24
2022-12-19T09:24:14.871Z,8.47
2022-12-19T09:26:44.050Z,8.31
2022-12-19T09:29:20.357Z,8.97
2022-12-19T09:31:55.677Z,8.63
2022-12-19T09:34:25.639Z,8.51
2022-12-19T09:37:08.341Z,8.54
2022-12-19T09:39:36.700Z,8.41
2022-12-19T09:42:18.050Z,8.57
2022-12-19T09:45:02.027Z,8.76
2022-12-19T09:47:31.891Z,8.68
2022-12-19T09:50:00.918Z,8.46
2022-12-19T09:52:33.964Z,8.71
2022-12-19T09:55:04.977Z,8.79
2022-12-19T09:57:40.271Z,8.81
2022-12-19T10:00:11.874Z,8.84
2022-12-19T10:02:42.799Z,9.26
2022-12-19T10:05:37.980Z,9.08
2022-12-19T10:08:17.047Z,9.09
2022-12-19T10:12:38.769Z,8.53
2022-12-19T10:13:57.397Z,8.85
2022-12-19T10:16:31.767Z,8.98
2022-12-19T10:19:02.089Z,8.96
2022-12-19T10:22:07.738Z,8.62
2022-12-19T10:24:46.511Z,9.01
2022-12-19T10:27:39.119Z,9.01
2022-12-19T10:30:25.470Z,8.84
2022-12-19T10:33:02.869Z,9.31
2022-12-19T10:35:34.884Z,9.12
2022-12-19T10:38:14.948Z,8.87
2022-12-19T10:40:47.286Z,9.02
2022-12-19T10:43:30.748Z,8.83
2022-12-19T10:46:06.379Z,9.00
2022-12-19T10:48:34.148Z,8.65
2022-12-19T10:51:06.533Z,8.75
2022-12-19T10:53:34.837Z,8.89
2022-12-19T10:56:13.525Z,9.03
2022-12-19T10:58:44.193Z,8.88
2022-12-19T11:01:14.439Z,9.25
2022-12-19T11:03:44.092Z,9.16
2022-12-19T11:06:47.297Z,9.04
2022-12-19T11:09:21.546Z,8.97
2022-12-19T11:15:34.109Z,9.13
2022-12-19T11:19:23.920Z,9.33
2022-12-19T11:26:07.891Z,9.04
2022-12-19T11:27:03.851Z,9.20
2022-12-19T11:29:30.008Z,9.50
2022-12-19T11:29:35.024Z,9.00
2022-12-19T11:30:36.287Z,8.75
2022-12-19T11:34:35.557Z,9.22
2022-12-19T11:37:18.752Z,9.84
2022-12-19T11:39:49.435Z,9.21
2022-12-19T11:42:22.626Z,9.29
2022-12-19T11:44:56.434Z,9.56
2022-12-19T11:47:33.751Z,9.54
2022-12-19T11:50:04.828Z,9.65
2022-12-19T11:53:03.964Z,9.70
2022-12-19T11:55:28.727Z,9.66
2022-12-19T11:57:56.411Z,9.50
2022-12-19T12:00:25.813Z,9.91
2022-12-19T12:03:19.709Z,9.51
2022-12-19T12:05:48.239Z,10.03
2022-12-19T12:09:30.346Z,9.84
2022-12-19T12:14:38.219Z,9.69
2022-12-19T12:25:36.719Z,10.23
2022-12-19T12:31:00.904Z,9.95
2022-12-19T12:31:28.411Z,10.13
2022-12-19T12:31:46.924Z,9.63
2022-12-19T12:32:03.003Z,10.13
2022-12-19T12:35:09.653Z,10.08
2022-12-19T12:35:33.636Z,9.78
2022-12-19T12:36:58.767Z,9.38
2022-12-19T12:38:24.670Z,10.06
2022-12-19T12:41:03.081Z,9.81
2022-12-19T12:43:45.820Z,9.64
2022-12-19T12:46:16.023Z,9.66
2022-12-19T12:48:46.948Z,10.04
2022-12-19T12:51:16.148Z,10.30
2022-12-19T12:53:46.263Z,10.47
2022-12-19T12:56:17.873Z,10.43
2022-12-19T12:59:05.323Z,10.52
2022-12-19T13:01:37.452Z,9.89
2022-12-19T13:04:08.673Z,9.37
2022-12-19T13:06:40.064Z,10.28
2022-12-19T13:09:21.801Z,10.02
2022-12-19T13:12:08.917Z,10.34
2022-12-19T13:14:45.447Z,10.09
2022-12-19T13:17:14.260Z,10.57
2022-12-19T13:19:54.992Z,10.37
2022-12-19T13:22:39.031Z,10.48
2022-12-19T13:25:40.135Z,10.79
2022-12-19T13:28:17.177Z,10.84
2022-12-19T13:31:21.000Z,10.22
2022-12-19T13:34:15.457Z,10.39
2022-12-19T13:39:59.624Z,10.62
2022-12-19T13:40:08.815Z,10.60
2022-12-19T13:42:59.434Z,10.10
2022-12-19T13:45:40.017Z,10.10
2022-12-19T13:48:14.327Z,10.33
2022-12-19T13:50:42.743Z,10.62
2022-12-19T13:53:12.339Z,10.77
2022-12-19T13:55:41.880Z,10.77
2022-12-19T13:58:22.259Z,10.91
2022-12-19T14:00:59.716Z,10.59
2022-12-19T14:03:34.996Z,10.63
2022-12-19T14:06:17.160Z,10.85
2022-12-19T14:08:47.747Z,10.85
2022-12-19T14:13:42.571Z,10.59
2022-12-19T14:14:47.056Z,10.09
2022-12-19T14:17:16.521Z,11.04
2022-12-19T14:19:45.602Z,10.31
2022-12-19T14:22:22.678Z,10.58
2022-12-19T14:25:50.190Z,10.76
2022-12-19T14:28:26.823Z,10.87
2022-12-19T14:30:39.196Z,10.85
2022-12-19T14:33:40.034Z,10.95
2022-12-19T14:36:07.384Z,11.04
2022-12-19T14:39:23.728Z,10.98
2022-12-19T14:42:00.960Z,11.10
2022-12-19T14:53:33.987Z,11.10
2022-12-19T14:54:13.501Z,10.86
2022-12-19T14:54:16.867Z,10.96
2022-12-19T14:54:20.957Z,10.79
2022-12-19T14:58:57.848Z,10.69
2022-12-19T15:01:29.008Z,11.05
2022-12-19T15:04:00.334Z,10.48
2022-12-19T15:07:09.060Z,10.71
2022-12-19T15:11:05.454Z,10.61
2022-12-19T15:14:53.425Z,10.75
2022-12-19T15:15:45.616Z,11.12
2022-12-19T15:18:22.337Z,11.16
2022-12-19T15:20:50.226Z,11.03
2022-12-19T15:23:21.993Z,10.87
2022-12-19T15:26:06.926Z,10.68
2022-12-19T15:28:41.180Z,10.62
2022-12-19T15:31:18.323Z,11.18
2022-12-19T15:34:14.907Z,10.91
2022-12-19T15:36:35.151Z,10.87
2022-12-19T15:39:03.788Z,10.87
2022-12-19T15:41:31.829Z,10.93
2022-12-19T15:44:04.473Z,10.93
2022-12-19T15:46:33.694Z,10.82
2022-12-19T15:49:03.040Z,10.98
2022-12-19T15:51:30.800Z,11.14
2022-12-19T15:54:15.608Z,11.04
2022-12-19T15:56:48.524Z,10.71
2022-12-19T15:59:31.202Z,10.84
2022-12-19T16:02:05.371Z,11.50
2022-12-19T16:04:35.011Z,11.07
2022-12-19T16:07:11.087Z,11.21
2022-12-19T16:09:38.768Z,11.21
2022-12-19T16:12:06.661Z,11.50
2022-12-19T16:14:34.359Z,10.91
2022-12-19T16:17:02.133Z,11.04
2022-12-19T16:19:31.180Z,11.38
2022-12-19T16:22:00.821Z,11.10
2022-12-19T16:24:28.462Z,11.30
2022-12-19T16:26:58.047Z,11.09
2022-12-19T16:29:28.652Z,11.40
2022-12-19T16:31:56.906Z,10.83
2022-12-19T16:34:25.505Z,11.43
2022-12-19T16:36:54.283Z,11.62
2022-12-19T16:39:23.455Z,11.15
2022-12-19T16:41:52.303Z,10.88
2022-12-19T16:44:21.973Z,11.13
2022-12-19T16:46:51.639Z,11.43
2022-12-19T16:49:22.950Z,11.15
2022-12-19T16:51:51.126Z,10.93
2022-12-19T16:54:20.071Z,11.47
2022-12-19T16:56:50.625Z,11.26
2022-12-19T16:59:20.845Z,11.05
2022-12-19T17:01:49.259Z,10.95
2022-12-19T17:04:18.464Z,11.35
2022-12-19T17:06:46.435Z,11.44
2022-12-19T17:09:16.547Z,11.49
2022-12-19T17:11:46.536Z,11.22
2022-12-19T17:14:18.574Z,11.34
2022-12-19T17:16:46.428Z,11.39
2022-12-19T17:19:19.201Z,11.39
2022-12-19T17:21:46.922Z,11.13
2022-12-19T17:24:15.690Z,11.29
2022-12-19T17:26:43.748Z,11.35
2022-12-19T17:29:11.804Z,11.40
2022-12-19T17:31:41.700Z,11.29
2022-12-19T17:34:15.562Z,11.54
2022-12-19T17:36:43.303Z,11.10
2022-12-19T17:39:19.440Z,11.10
2022-12-19T17:41:47.466Z,11.13
2022-12-19T17:44:15.266Z,11.07
2022-12-19T17:46:44.591Z,11.07
2022-12-19T17:49:17.583Z,10.63
2022-12-19T17:51:50.095Z,10.64
2022-12-19T17:54:17.807Z,10.58
2022-12-19T17:56:45.739Z,10.82
2022-12-19T17:59:13.567Z,10.85
2022-12-19T18:01:42.371Z,11.20
2022-12-19T18:04:15.208Z,10.57
2022-12-19T18:06:43.162Z,10.82
2022-12-19T18:09:18.700Z,10.63
2022-12-19T18:11:46.597Z,10.86
2022-12-19T18:14:14.331Z,11.01
2022-12-19T18:16:42.440Z,11.07
2022-12-19T18:19:17.315Z,11.26
2022-12-19T18:21:45.063Z,11.16
2022-12-19T18:24:14.317Z,10.62
2022-12-19T18:26:42.067Z,11.42
2022-12-19T18:29:09.913Z,11.18
2022-12-19T18:31:37.751Z,11.15
2022-12-19T18:34:08.173Z,10.38
2022-12-19T18:36:41.209Z,11.35
2022-12-19T18:39:20.382Z,10.99
2022-12-19T18:41:48.509Z,11.29
2022-12-19T18:44:16.264Z,10.87
2022-12-19T18:46:44.298Z,10.85
2022-12-19T18:49:13.366Z,11.11
2022-12-19T18:51:42.978Z,11.05
2022-12-19T18:54:14.032Z,11.51
2022-12-19T18:56:41.825Z,11.71
2022-12-19T18:59:11.012Z,11.58
2022-12-19T19:01:41.957Z,10.79
2022-12-19T19:04:13.054Z,11.62
2022-12-19T19:06:50.038Z,11.48
2022-12-19T19:09:19.135Z,11.41
2022-12-19T19:11:46.789Z,11.56
2022-12-19T19:14:14.592Z,11.15
2022-12-19T19:16:42.460Z,11.20
2022-12-19T19:19:12.738Z,11.63
2022-12-19T19:21:42.645Z,11.82
2022-12-19T19:24:14.107Z,11.69
2022-12-19T19:26:41.758Z,11.75
2022-12-19T19:29:10.693Z,11.44
2022-12-19T19:31:39.996Z,11.83
2022-12-19T19:34:11.846Z,12.07
2022-12-19T19:36:42.981Z,11.50
2022-12-19T19:39:11.479Z,11.51
2022-12-19T19:41:39.152Z,11.70
2022-12-19T19:44:06.811Z,12.05
2022-12-19T19:46:34.608Z,12.06
2022-12-19T19:49:02.373Z,11.32
2022-12-19T19:51:30.108Z,11.91
2022-12-19T19:53:59.510Z,11.98
2022-12-19T19:56:27.177Z,12.11
2022-12-19T19:58:57.591Z,12.28
2022-12-19T20:01:25.383Z,11.78
2022-12-19T20:03:53.354Z,12.13
2022-12-19T20:06:21.107Z,12.07
2022-12-19T20:08:49.301Z,11.56
2022-12-19T20:11:18.519Z,11.80
2022-12-19T20:13:46.175Z,12.18
2022-12-19T20:16:16.701Z,11.78
2022-12-19T20:18:48.270Z,11.74
2022-12-19T20:21:16.157Z,11.37
2022-12-19T20:23:44.348Z,12.30
2022-12-19T20:26:13.123Z,11.92
2022-12-19T20:28:48.349Z,12.16
2022-12-19T20:31:16.992Z,12.20
2022-12-19T20:33:45.127Z,12.41
2022-12-19T20:36:14.123Z,12.32
2022-12-19T20:38:42.181Z,12.34
2022-12-19T20:41:10.428Z,11.54
2022-12-19T20:43:38.835Z,11.80
2022-12-19T20:46:09.644Z,12.02
2022-12-19T20:48:37.619Z,11.95
2022-12-19T20:51:05.713Z,12.00
2022-12-19T20:53:34.096Z,11.74
2022-12-19T20:56:03.050Z,11.75
2022-12-19T20:58:31.894Z,11.69
2022-12-19T21:01:06.360Z,11.72
2022-12-19T21:03:36.294Z,11.63
2022-12-19T21:06:04.700Z,10.99
2022-12-19T21:08:32.743Z,11.43
2022-12-19T21:11:01.499Z,11.36
2022-12-19T21:13:29.187Z,11.56
2022-12-19T21:15:58.531Z,11.53
2022-12-19T21:18:27.107Z,11.26
2022-12-19T21:20:56.283Z,11.68
2022-12-19T21:23:25.327Z,11.59
2022-12-19T21:25:53.348Z,11.35
2022-12-19T21:28:21.398Z,11.64
2022-12-19T21:30:56.546Z,11.33
2022-12-19T21:33:24.409Z,11.37
2022-12-19T21:35:52.139Z,11.37
2022-12-19T21:38:21.568Z,11.43
2022-12-19T21:40:49.390Z,11.33
2022-12-19T21:43:17.281Z,11.72
2022-12-19T21:45:45.024Z,12.15
2022-12-19T21:48:12.691Z,11.72
2022-12-19T21:50:40.354Z,11.84
2022-12-19T21:53:08.052Z,11.87
2022-12-19T21:55:37.191Z,11.59
2022-12-19T21:58:04.898Z,11.37
2022-12-19T22:00:32.728Z,11.69
2022-12-19T22:03:16.197Z,11.89
2022-12-19T22:05:44.002Z,12.21
2022-12-19T22:08:11.919Z,12.06
2022-12-19T22:10:41.039Z,11.48
2022-12-19T22:13:08.743Z,11.34
2022-12-19T22:15:36.880Z,11.54
2022-12-19T22:18:04.752Z,11.40
2022-12-19T22:20:32.453Z,11.80
2022-12-19T22:23:00.206Z,11.20
2022-12-19T22:25:27.926Z,11.83
2022-12-19T22:27:57.646Z,11.48
2022-12-19T22:30:25.396Z,11.42
2022-12-19T22:32:53.132Z,11.56
2022-12-19T22:35:20.862Z,12.04
2022-12-19T22:37:48.603Z,12.00
2022-12-19T22:40:16.681Z,11.53
2022-12-19T22:42:44.333Z,12.18
2022-12-19T22:45:13.942Z,12.10
2022-12-19T22:47:42.549Z,12.14
2022-12-19T22:50:11.451Z,11.83
2022-12-19T22:52:39.303Z,12.20
2022-12-19T22:55:08.004Z,12.18
2022-12-19T22:57:35.679Z,12.16
2022-12-19T23:00:03.643Z,12.03
2022-12-19T23:02:32.840Z,12.17
2022-12-19T23:05:00.690Z,12.07
2022-12-19T23:07:28.459Z,12.11
2022-12-19T23:09:56.233Z,12.22
2022-12-19T23:12:23.947Z,12.41
2022-12-19T23:14:51.609Z,12.26
2022-12-19T23:17:19.312Z,11.74
2022-12-19T23:19:48.346Z,12.10
2022-12-19T23:22:15.967Z,12.57
2022-12-19T23:24:44.767Z,12.30
2022-12-19T23:27:12.447Z,12.07
2022-12-19T23:29:40.152Z,11.91
2022-12-19T23:32:07.882Z,12.30
2022-12-19T23:34:37.325Z,12.17
2022-12-19T23:37:11.218Z,12.69
2022-12-19T23:39:39.773Z,12.56
2022-12-19T23:42:07.499Z,12.21
2022-12-19T23:44:35.285Z,12.29
2022-12-19T23:47:04.144Z,12.52
2022-12-19T23:49:32.529Z,11.92
2022-12-19T23:52:00.284Z,12.19
2022-12-19T23:54:29.459Z,12.40
2022-12-19T23:56:57.181Z,11.98
2022-12-19T23:59:24.874Z,12.30
